Tiempo atmosférico en la estación meteorológica de Colunga, Asturias (35 m.)



Fecha
DESCASC
Temp. máxima en grados centígrados (hora)
DESCASC
Temp. mínima en grados centígrados (hora)
DESCASC
Temp. media en grados centígrados
DESCASC
Racha de viento máxima en m/sg (hora)
DESCASC
Velocidad máxima media en intervalos de 10 minutos(hora)
DESCASC
Precipitaciones diarias en mm
DESCASC
Precipitaciones de 00:00 a 06:00 en mm
DESCASC
Precipitaciones de 06:00 a 12:00 en mm
DESCASC
Precipitaciones de 12:00 a 18:00 en mm
DESCASC
Precipitaciones de 18:00 a 24:00 en mm
DESCASC
05-04-2020 22.2 (14:00) 10.1 (08:20) 16.2 10 (15:00) 5.83 (15:30) 0.6 0 0 0 0.6
04-04-2020 15.7 (19:10) 4.7 (07:50) 10.2 6.11 (23:00) 3.61 (12:20) 0 0 0 0 0
03-04-2020 13.4 (14:50) 6.5 (08:30) 9.9 11.39 (16:40) 7.5 (17:40) 0 0 0 0 0
02-04-2020 14.4 (14:50) 10.5 (00:00) 12.4 6.11 (14:30) 3.06 (12:50) 0.2 0.2 0 0 0
01-04-2020 14.1 (15:20) 6.4 (00:00) 10.3 8.89 (00:30) 6.11 (00:30) 0 0 0 0 0
31-03-2020 9.9 (23:20) 1.6 (00:00) 5.7 17.5 (17:50) 10.56 (17:50) 5.6 5.4 0.2 0 0
30-03-2020 9.6 (15:30) 4.5 (00:00) 7.1 15.56 (08:30) 8.89 (01:30) 11.2 2.8 3.4 0.6 4.4
29-03-2020 14.3 (13:20) 6.6 (00:00) 10.5 13.89 (20:50) 8.61 (18:50) 0.4 0 0 0 0.4
28-03-2020 14.6 (15:40) 4.7 (00:00) 9.7 6.11 (00:30) 3.61 (16:50) 0 0 0 0 0
27-03-2020 13.1 (14:20) 3.1 (00:00) 8.1 12.22 (17:10) 7.5 (19:00) 0 0 0 0 0
26-03-2020 13.2 (17:10) 5.8 (00:00) 9.5 7.5 (19:30) 3.61 (19:30) 0 0 0 0 0
25-03-2020 14.9 (16:20) 7 (00:00) 10.9 6.11 (00:10) 3.61 (00:10) 0 0 0 0 0
24-03-2020 15.8 (14:30) 9.3 (00:00) 12.6 8.33 (00:20) 5.28 (01:00) 0 0 0 0 0
23-03-2020 14 (12:40) 11.8 (00:00) 12.9 9.72 (23:30) 5.83 (22:40) 0 0 0 0 0
22-03-2020 15.9 (11:10) 11.2 (00:00) 13.5 6.39 (18:20) 3.61 (12:50) 0 0 0 0 0
21-03-2020 11.7 (13:00) 9.1 (00:00) 10.4 3.33 (13:30) 2.22 (13:10) 0 0 0 0 0
20-03-2020 12.4 (17:00) 10.4 (00:00) 11.4 3.61 (13:30) 2.22 (13:40) 0 0 0 0 0
19-03-2020 11.9 (14:40) 10.2 (00:00) 11 3.33 (15:30) 1.94 (15:20) 0 0 0 0 0
18-03-2020 13.8 (14:00) 9.9 (00:00) 11.8 3.61 (13:30) 2.5 (13:30) 0 0 0 0 0
17-03-2020 12.5 (13:50) 8.6 (00:00) 10.6 7.22 (16:40) 4.17 (18:10) 0 0 0 0 0
16-03-2020 12.9 (15:10) 5.5 (00:00) 9.2 8.33 (11:40) 4.44 (17:50) 7.4 4.8 2.6 0 0
15-03-2020 16.2 (13:10) 5.2 (00:00) 10.7 8.33 (19:30) 4.17 (19:30) 6.6 0 0 2 4.6
14-03-2020 14.4 (14:50) 7.6 (00:00) 11 5.56 (19:20) 3.61 (16:10) 0 0 0 0 0
13-03-2020 12.6 (14:30) 9.4 (05:00) 11 8.61 (12:20) 5.28 (12:20) 2.8 2.8 0 0 0
12-03-2020 13.5 (14:00) 9.7 (00:00) 11.6 8.61 (20:40) 4.72 (20:40) 9.4 0 1 1.2 7.2
11-03-2020 15.4 (16:00) 6.6 (00:00) 11 4.44 (04:00) 3.33 (04:10) 0 0 0 0 0
10-03-2020 14.8 (14:30) 6.5 (00:00) 10.7 5.28 (17:20) 3.33 (17:40) 0 0 0 0 0

Gráficas

Temp. máximas Temp. mínimas Temp. medias Precipitaciones Rachas de viento máximas Velocidades máximas media en intervalos de 10 minutos

Datos horarios

Fecha y hora oficial Temperatura (ºC) Velocidad del viento (km/h) Dirección del viento Racha (km/h) Dirección de racha Precipitación (mm) Presión (hPa) Tendencia (hPa) Humedad (%)
2020-04-08 23:00:00 12.1 8 Este 17 Este 0 -- -- 100
2020-04-08 22:00:00 12.2 9 Este 19 Este 0 -- -- 100
2020-04-08 21:00:00 12.3 11 Este 22 Este 0 -- -- 100
2020-04-08 20:00:00 12.5 14 Este 24 Este 0 -- -- 100
2020-04-08 19:00:00 12.8 14 Este 23 Este 0 -- -- 99
2020-04-08 18:00:00 13.3 14 Este 21 Este 0 -- -- 98
2020-04-08 17:00:00 13.6 10 Este 19 Nordeste 0 -- -- 98
2020-04-08 16:00:00 13.7 12 Este 18 Este 0 -- -- 99
2020-04-08 15:00:00 13.5 9 Este 17 Este 0 -- -- 100
2020-04-08 14:00:00 12.8 8 Nordeste 14 Nordeste 0 -- -- 100
2020-04-08 13:00:00 12.6 8 Este 14 Nordeste 0 -- -- 100
2020-04-08 12:00:00 12.4 5 Nordeste 10 Este 0 -- -- 100
2020-04-08 11:00:00 12.2 2 Oeste 8 Norte 0 -- -- 100
2020-04-08 10:00:00 11.7 3 Nordeste 9 Nordeste 0 -- -- 100
2020-04-08 09:00:00 11.8 4 Este 12 Este 0 -- -- 100
2020-04-08 08:00:00 11.9 6 Este 10 Nordeste 0 -- -- 100
2020-04-08 07:00:00 11.9 0 Calma 12 Este 0 -- -- 100
2020-04-08 06:00:00 12.1 3 Norte 7 Norte 0 -- -- 100
2020-04-08 05:00:00 12.1 2 Nordeste 8 Este 0 -- -- 100
2020-04-08 04:00:00 12.4 4 Este 8 Nordeste 0 -- -- 100
2020-04-08 03:00:00 12.5 0 Calma 4 Sur 0 -- -- 100
2020-04-08 02:00:00 12.3 0 Calma 2 Norte 0 -- -- 100
2020-04-08 01:00:00 12 0 Calma 4 Norte 0 -- -- 99
2020-04-08 00:00:00 12.5 0 Calma 3 Sur 0.4 -- -- 99
2020-04-07 23:00:00 12.7 3 Norte 10 Este 0 -- -- 98
2020-04-07 22:00:00 12.7 4 Norte 7 Norte 0.2 -- -- 97
2020-04-07 21:00:00 12.8 3 Oeste 13 Este 0 -- -- 97
2020-04-07 20:00:00 12.9 6 Este 16 Este 0 -- -- 96
2020-04-07 19:00:00 13.3 4 Este 12 Este 0.4 -- -- 94
2020-04-07 18:00:00 13.6 7 Este 16 Este 0 -- -- 91
2020-04-07 17:00:00 14 10 Este 21 Este 0 -- -- 90
2020-04-07 16:00:00 15.2 12 Este 18 Nordeste 0 -- -- 86
2020-04-07 15:00:00 15.2 9 Este 19 Este 0 -- -- 85
2020-04-07 14:00:00 15.1 9 Este 17 Este 0 -- -- 85
2020-04-07 13:00:00 14.8 10 Este 18 Este 0 -- -- 85
2020-04-07 12:00:00 14.3 9 Este 15 Este 0 -- -- 86
2020-04-07 11:00:00 13.7 10 Este 20 Este 0 -- -- 89
2020-04-07 10:00:00 12.8 7 Este 15 Este 0 -- -- 94
2020-04-07 09:00:00 12 4 Este 10 Este 0 -- -- 97
2020-04-07 08:00:00 11.6 5 Nordeste 16 Este 0 -- -- 98
2020-04-07 07:00:00 11.7 10 Este 15 Este 0 -- -- 96
2020-04-07 06:00:00 11.8 6 Este 18 Este 0 -- -- 96
2020-04-07 05:00:00 11.8 12 Este 19 Este 0 -- -- 96
2020-04-07 04:00:00 11.9 11 Este 22 Este 0 -- -- 97
2020-04-07 03:00:00 11.9 11 Este 23 Nordeste 0 -- -- 97
2020-04-07 02:00:00 11.9 9 Este 17 Nordeste 0 -- -- 97
2020-04-07 01:00:00 11.8 12 Este 25 Este 0 -- -- 97
2020-04-07 00:00:00 11.7 13 Este 25 Este 0 -- -- 97
2020-04-06 23:00:00 11.7 15 Este 27 Este 0.2 -- -- 97
2020-04-06 22:00:00 11.9 14 Este 26 Este 0 -- -- 97
2020-04-06 21:00:00 11.8 16 Este 27 Este 0 -- -- 97
2020-04-06 20:00:00 12 15 Este 26 Este 0 -- -- 97
2020-04-06 19:00:00 12.2 16 Este 25 Este 0 -- -- 97
2020-04-06 18:00:00 12.3 14 Este 22 Este 0.4 -- -- 98
2020-04-06 17:00:00 12.4 11 Este 22 Este 0.2 -- -- 98
2020-04-06 16:00:00 12.5 11 Este 21 Este 0 -- -- 97
2020-04-06 15:00:00 12.6 8 Este 15 Este 0 -- -- 99
2020-04-06 14:00:00 12.5 6 Este 14 Nordeste 0 -- -- 99
2020-04-06 13:00:00 11.9 8 Este 12 Este 0.2 -- -- 99
2020-04-06 12:00:00 11.2 5 Norte 10 Norte 1 -- -- 99
2020-04-06 11:00:00 11.4 3 Norte 8 Norte 0.8 -- -- 99
2020-04-06 10:00:00 11.4 2 Sudoeste 8 Noroeste 1.4 -- -- 99
2020-04-06 09:00:00 11.3 3 Noroeste 6 Noroeste 1.2 -- -- 98
2020-04-06 08:00:00 11.8 0 Calma 10 Noroeste 1 -- -- 97
2020-04-06 07:00:00 12.2 3 Noroeste 7 Oeste 0 -- -- 97
2020-04-06 06:00:00 12.4 0 Calma 3 Oeste 0 -- -- 97
2020-04-06 05:00:00 12.7 2 Oeste 4 Sudoeste 0 -- -- 96
2020-04-06 04:00:00 12.8 -- -- -- -- 0 -- -- 95
2020-04-06 03:00:00 13.2 0 Calma 8 Oeste 0 -- -- 94
2020-04-06 02:00:00 13.3 5 Oeste 10 Oeste 0 -- -- 95
2020-04-06 01:00:00 13.2 4 Oeste 10 Norte 0 -- -- 94
2020-04-06 00:00:00 12.7 8 Sudoeste 13 Sudoeste 0 -- -- 96
2020-04-05 23:00:00 13 4 Sudoeste 10 Oeste 0 -- -- 94
2020-04-05 22:00:00 13.1 4 Oeste 9 Sur 0 -- -- 92
2020-04-05 21:00:00 15.1 3 Sudoeste 18 Noroeste 0 -- -- 87
2020-04-05 20:00:00 15.6 7 Noroeste 18 Noroeste 0.4 -- -- 87
2020-04-05 19:00:00 17.4 7 Noroeste 14 Sudoeste 0.2 -- -- 75
2020-04-05 18:00:00 18.7 4 Oeste 11 Este 0 -- -- 70
2020-04-05 17:00:00 20.6 9 Este 30 Sudeste 0 -- -- 54
2020-04-05 16:00:00 21.6 15 Sudeste 35 Sudeste 0 -- -- 50
2020-04-05 15:00:00 21 17 Sur 36 Sur 0 -- -- 49
2020-04-05 14:00:00 22.2 13 Sudeste 26 Sudeste 0 -- -- 52
2020-04-05 13:00:00 20.3 13 Sudeste 32 Sudeste 0 -- -- 50
2020-04-05 12:00:00 20.1 6 Sudoeste 25 Sudeste 0 -- -- 57
2020-04-05 11:00:00 19 11 Sudeste 18 Sudeste 0 -- -- 57
2020-04-05 10:00:00 17.2 8 Sudeste 18 Sudeste 0 -- -- 64
2020-04-05 09:00:00 12.7 10 Oeste 21 Sudoeste 0 -- -- 77
2020-04-05 08:00:00 10.6 6 Oeste 17 Sudoeste 0 -- -- 80
2020-04-05 07:00:00 13.1 3 Sudoeste 16 Sur 0 -- -- 68
2020-04-05 06:00:00 12.6 6 Sudoeste 20 Sudoeste 0 -- -- 72
2020-04-05 05:00:00 15 8 Sudoeste 21 Sudoeste 0 -- -- 63
2020-04-05 04:00:00 13 5 Sudoeste 18 Sudoeste 0 -- -- 74
2020-04-05 03:00:00 14.2 6 Sudoeste 18 Sudoeste 0 -- -- 68
2020-04-05 02:00:00 16.1 6 Sudoeste 25 Sur 0 -- -- 60
2020-04-05 01:00:00 13.4 3 Oeste 15 Sudoeste 0 -- -- 74
2020-04-05 00:00:00 12.6 9 Oeste 19 Sudoeste 0 -- -- 78
2020-04-04 23:00:00 11.6 6 Oeste 22 Sudeste 0 -- -- 85
2020-04-04 22:00:00 11.1 3 Sur 8 Sudoeste 0 -- -- 87
2020-04-04 21:00:00 11.7 0 Calma 8 Oeste 0 -- -- 77
2020-04-04 20:00:00 14.8 5 Oeste 10 Oeste 0 -- -- 68
2020-04-04 19:00:00 15.6 0 Calma 13 Nordeste 0 -- -- 64
2020-04-04 18:00:00 14 10 Nordeste 15 Nordeste 0 -- -- 85
2020-04-04 17:00:00 15 6 Nordeste 19 Este 0 -- -- 79
2020-04-04 16:00:00 15 10 Este 18 Este 0 -- -- 82
2020-04-04 15:00:00 14.4 9 Norte 14 Nordeste 0 -- -- 85
2020-04-04 14:00:00 14.1 9 Nordeste 14 Nordeste 0 -- -- 80
2020-04-04 13:00:00 13.3 10 Nordeste 16 Norte 0 -- -- 83
2020-04-04 12:00:00 13.3 9 Nordeste 14 Nordeste 0 -- -- 81
2020-04-04 11:00:00 12.8 8 Nordeste 11 Nordeste 0 -- -- 85
2020-04-04 10:00:00 9.4 8 Sudoeste 13 Oeste 0 -- -- 96
2020-04-04 09:00:00 6.3 7 Sudoeste 17 Sudoeste 0 -- -- 99
2020-04-04 08:00:00 5.4 7 Oeste 11 Oeste 0 -- -- 100
2020-04-04 07:00:00 6.3 9 Oeste 14 Sudoeste 0 -- -- 99
2020-04-04 06:00:00 5.3 8 Sudoeste 12 Oeste 0 -- -- 98
2020-04-04 05:00:00 5.4 5 Sudoeste 14 Oeste 0 -- -- 98
2020-04-04 04:00:00 6.2 10 Sudoeste 15 Oeste 0 -- -- 98
2020-04-04 03:00:00 6.5 8 Sudoeste 14 Sudoeste 0 -- -- 97
2020-04-04 02:00:00 6.8 9 Oeste 14 Sudoeste 0 -- -- 96
2020-04-04 01:00:00 6.9 6 Oeste 10 Sudoeste 0 -- -- 95
2020-04-04 00:00:00 7.5 0 Calma 10 Este 0 -- -- 90
2020-04-03 23:00:00 9.7 5 Este 17 Este 0 -- -- 88
2020-04-03 22:00:00 10.4 10 Este 34 Este 0 -- -- 86
2020-04-03 21:00:00 11.1 18 Este 36 Este 0 -- -- 84
2020-04-03 20:00:00 11.8 21 Este 39 Este 0 -- -- 79
2020-04-03 19:00:00 12.5 22 Este 41 Este 0 -- -- 74
2020-04-03 18:00:00 12.7 25 Este 41 Este 0 -- -- 70
2020-04-03 17:00:00 13.2 24 Este 41 Este 0 -- -- 67
2020-04-03 16:00:00 13.2 23 Este 37 Este 0 -- -- 67
2020-04-03 15:00:00 13.3 23 Este 36 Este 0 -- -- 64
2020-04-03 14:00:00 13.2 22 Este 34 Este 0 -- -- 72
2020-04-03 13:00:00 13 19 Este 28 Este 0 -- -- 72
2020-04-03 12:00:00 12 17 Este 26 Este 0 -- -- 75
2020-04-03 11:00:00 12.2 12 Este 19 Este 0 -- -- 75
2020-04-03 10:00:00 9.3 0 Calma 5 Sudoeste 0 -- -- 95
2020-04-03 09:00:00 6.7 3 Sudoeste 9 Sudoeste 0 -- -- 97
2020-04-03 08:00:00 6.7 3 Sudoeste 5 Sudoeste 0 -- -- 95
2020-04-03 07:00:00 7.8 0 Calma 4 Sudoeste 0 -- -- 94
2020-04-03 06:00:00 8.6 0 Calma 4 Sudoeste 0 -- -- 92
2020-04-03 05:00:00 8.8 4 Sudoeste 7 Sudoeste 0 -- -- 89
2020-04-03 04:00:00 9.1 0 Calma 10 Nordeste 0 -- -- 81
2020-04-03 03:00:00 10 3 Nordeste 8 Norte 0 -- -- 77
2020-04-03 02:00:00 10.2 3 Nordeste 11 Norte 0 -- -- 78
2020-04-03 01:00:00 10.3 3 Norte 10 Nordeste 0 -- -- 80
2020-04-03 00:00:00 10.5 5 Norte 13 Nordeste 0 -- -- 78
2020-04-02 23:00:00 10.7 5 Norte 13 Nordeste 0 -- -- 80
2020-04-02 22:00:00 10.9 2 Sudoeste 15 Nordeste 0 -- -- 82
2020-04-02 21:00:00 11 4 Norte 12 Nordeste 0 -- -- 80
2020-04-02 20:00:00 11.9 6 Nordeste 13 Nordeste 0 -- -- 69
2020-04-02 19:00:00 12.6 5 Nordeste 12 Norte 0 -- -- 63
2020-04-02 18:00:00 13.2 6 Nordeste 15 Norte 0 -- -- 64
2020-04-02 17:00:00 13.3 8 Nordeste 18 Nordeste 0 -- -- 65
2020-04-02 16:00:00 13.9 8 Nordeste 17 Norte 0 -- -- 73
2020-04-02 15:00:00 14.2 8 Nordeste 22 Este 0 -- -- 76
2020-04-02 14:00:00 14.1 7 Nordeste 17 Nordeste 0 -- -- 77
2020-04-02 13:00:00 13.3 11 Nordeste 17 Nordeste 0 -- -- 83
2020-04-02 12:00:00 14.1 5 Nordeste 16 Norte 0 -- -- 84
2020-04-02 11:00:00 12.7 7 Nordeste 19 Nordeste 0 -- -- 91
2020-04-02 10:00:00 12.3 7 Norte 12 Norte 0 -- -- 97
2020-04-02 09:00:00 11.8 2 Noroeste 6 Noroeste 0 -- -- 100
2020-04-02 08:00:00 11.5 3 Oeste 5 Oeste 0 -- -- 100
2020-04-02 07:00:00 11.3 3 Oeste 4 Sudoeste 0 -- -- 99
2020-04-02 06:00:00 11.8 2 Norte 7 Norte 0 -- -- 99
2020-04-02 05:00:00 11.9 3 Nordeste 8 Nordeste 0 -- -- 99
2020-04-02 04:00:00 11.6 2 Sudoeste 5 Norte 0 -- -- 99
2020-04-02 03:00:00 11.5 2 Oeste 4 Sudoeste 0.2 -- -- 99
2020-04-02 02:00:00 11.6 3 Norte 5 Norte 0 -- -- 98
2020-04-02 01:00:00 11.7 0 Calma 6 Norte 0 -- -- 98
2020-04-02 00:00:00 11.9 4 Norte 9 Norte 0 -- -- 97
2020-04-01 23:00:00 12.1 3 Norte 6 Norte 0 -- -- 96
2020-04-01 22:00:00 12.1 2 Noroeste 10 Noroeste 0 -- -- 95
2020-04-01 21:00:00 12.3 6 Nordeste 13 Norte 0 -- -- 94
2020-04-01 20:00:00 12.5 8 Norte 14 Norte 0 -- -- 92
2020-04-01 19:00:00 13.2 5 Norte 13 Norte 0 -- -- 89
2020-04-01 18:00:00 14 5 Norte 13 Oeste 0 -- -- 86
2020-04-01 17:00:00 13.8 7 Noroeste 17 Oeste 0 -- -- 85
2020-04-01 16:00:00 13.8 8 Norte 16 Noroeste 0 -- -- 82
2020-04-01 15:00:00 13.4 5 Norte 14 Noroeste 0 -- -- 82
2020-04-01 14:00:00 13.1 5 Noroeste 11 Oeste 0 -- -- 83
2020-04-01 13:00:00 13.1 6 Oeste 13 Sudoeste 0 -- -- 81
2020-04-01 12:00:00 12.3 6 Sudoeste 12 Sudoeste 0 -- -- 85
2020-04-01 11:00:00 10.6 4 Sudoeste 9 Oeste 0 -- -- 87
2020-04-01 10:00:00 9.2 5 Sudoeste 14 Oeste 0 -- -- 90
2020-04-01 09:00:00 8.3 7 Oeste 18 Sudoeste 0 -- -- 91
2020-04-01 08:00:00 7.3 10 Sudoeste 15 Sudoeste 0 -- -- 92
2020-04-01 07:00:00 7.7 9 Oeste 15 Oeste 0 -- -- 92
2020-04-01 06:00:00 7.6 11 Oeste 18 Oeste 0 -- -- 92
2020-04-01 05:00:00 7.4 10 Oeste 17 Oeste 0 -- -- 94
2020-04-01 04:00:00 6.7 9 Oeste 14 Oeste 0 -- -- 95
2020-04-01 03:00:00 7.7 4 Oeste 21 Nordeste 0 -- -- 90
2020-04-01 02:00:00 9.2 11 Nordeste 26 Nordeste 0 -- -- 89
2020-04-01 01:00:00 9.4 13 Este 32 Este 0 -- -- 89
2020-04-01 00:00:00 9.6 12 Este 39 Este 0 -- -- 89
2020-03-31 23:00:00 9.7 21 Este 33 Este 0 -- -- 89
2020-03-31 22:00:00 9.7 19 Este 34 Este 0 -- -- 88
2020-03-31 21:00:00 9.6 21 Este 44 Este 0 -- -- 89
2020-03-31 20:00:00 9.6 27 Este 55 Este 0 -- -- 90
2020-03-31 19:00:00 9.5 32 Este 59 Este 0 -- -- 90
2020-03-31 18:00:00 9.4 37 Este 63 Este 0 -- -- 90
2020-03-31 17:00:00 9.4 30 Este 50 Este 0 -- -- 86
2020-03-31 16:00:00 9.3 30 Este 49 Este 0 -- -- 83
2020-03-31 15:00:00 9.2 30 Este 51 Este 0 -- -- 79
2020-03-31 14:00:00 9.5 34 Este 55 Este 0 -- -- 76
2020-03-31 13:00:00 8.5 35 Este 59 Este 0 -- -- 81
2020-03-31 12:00:00 7.9 33 Este 58 Este 0 -- -- 79
2020-03-31 11:00:00 7.7 21 Este 39 Este 0 -- -- 81
2020-03-31 10:00:00 6.3 17 Este 34 Este 0 -- -- 94
2020-03-31 09:00:00 3.4 7 Este 15 Este 0 -- -- 100
2020-03-31 08:00:00 1.7 4 Sudoeste 11 Oeste 0.2 -- -- 98
2020-03-31 07:00:00 2.3 6 Sudoeste 13 Oeste 0 -- -- 98
2020-03-31 06:00:00 2.5 7 Oeste 12 Oeste 0 -- -- 97
2020-03-31 05:00:00 3.3 9 Oeste 15 Sudoeste 0 -- -- 97
2020-03-31 04:00:00 3.7 8 Sudoeste 13 Oeste 1.6 -- -- 95
2020-03-31 03:00:00 4.1 6 Sudoeste 27 Este 2.4 -- -- 94
2020-03-31 02:00:00 5 21 Este 36 Nordeste 1 -- -- 91
2020-03-31 01:00:00 4.7 7 Sudeste 44 Este 0.4 -- -- 92
2020-03-31 00:00:00 4.5 3 Sudeste 39 Este 0 -- -- 92
2020-03-30 23:00:00 5.4 15 Nordeste 38 Este 0.4 -- -- 92
2020-03-30 22:00:00 6.6 14 Este 39 Norte 0.4 -- -- 87
2020-03-30 21:00:00 5.7 29 Este 49 Nordeste 1.8 -- -- 89
2020-03-30 20:00:00 5.6 16 Este 32 Este 1.8 -- -- 86
2020-03-30 19:00:00 7.6 12 Este 35 Este 0 -- -- 76
2020-03-30 18:00:00 8.3 15 Este 39 Este 0 -- -- 71
2020-03-30 17:00:00 8.6 21 Este 50 Nordeste 0.2 -- -- 66
2020-03-30 16:00:00 7.8 26 Este 48 Este 0 -- -- 74
2020-03-30 15:00:00 8 12 Nordeste 50 Nordeste 0 -- -- 71
2020-03-30 14:00:00 7.2 23 Este 41 Este 0 -- -- 71
2020-03-30 13:00:00 6.9 23 Este 49 Este 0.4 -- -- 74
2020-03-30 12:00:00 6.9 23 Este 48 Este 0 -- -- 74
2020-03-30 11:00:00 7.2 28 Este 50 Este 0.2 -- -- 76
2020-03-30 10:00:00 6.8 15 Nordeste 43 Nordeste 1 -- -- 78
2020-03-30 09:00:00 6.9 18 Este 56 Nordeste 2 -- -- 77
2020-03-30 08:00:00 6.8 28 Nordeste 53 Norte 0.2 -- -- 79
2020-03-30 07:00:00 8.2 19 Este 48 Este 0 -- -- 69
2020-03-30 06:00:00 7.7 22 Este 42 Nordeste 0 -- -- 81
2020-03-30 05:00:00 6.6 10 Este 26 Nordeste 1.8 -- -- 83
2020-03-30 04:00:00 6.9 7 Este 31 Este 0 -- -- 86
2020-03-30 03:00:00 7.4 15 Este 37 Este 0.2 -- -- 89
2020-03-30 02:00:00 8 25 Este 54 Nordeste 0.4 -- -- 88
2020-03-30 01:00:00 7.8 19 Este 49 Nordeste 0.4 -- -- 91
2020-03-30 00:00:00 8 13 Este 30 Este 0.2 -- -- 92
2020-03-29 23:00:00 8.4 20 Este 36 Este 0 -- -- 92
2020-03-29 22:00:00 8.5 22 Este 46 Nordeste 0.2 -- -- 91
2020-03-29 21:00:00 9.1 23 Este 50 Este 0 -- -- 88
2020-03-29 20:00:00 9.9 28 Este 48 Este 0 -- -- 87
2020-03-29 19:00:00 10.4 30 Este 49 Nordeste 0 -- -- 89
2020-03-29 18:00:00 11.1 29 Este 46 Este 0 -- -- 89
2020-03-29 17:00:00 13.8 12 Este 30 Este 0 -- -- 75
2020-03-29 16:00:00 13.9 8 Nordeste 19 Nordeste 0 -- -- 73
2020-03-29 15:00:00 14 12 Nordeste 23 Nordeste 0 -- -- 74
2020-03-29 14:00:00 14 14 Este 25 Nordeste 0 -- -- 75
2020-03-29 13:00:00 13.7 10 Nordeste 17 Nordeste 0 -- -- 79
2020-03-29 12:00:00 13 9 Norte 13 Norte 0 -- -- 82
2020-03-29 11:00:00 12.1 7 Norte 9 Norte 0 -- -- 88
2020-03-29 10:00:00 9.5 7 Sudoeste 12 Sudoeste 0 -- -- 97
2020-03-29 09:00:00 7.4 8 Sudoeste 12 Sudoeste 0 -- -- 98
2020-03-29 08:00:00 6.8 9 Sudoeste 13 Sudoeste 0 -- -- 98
2020-03-29 07:00:00 6.7 8 Sudoeste 14 Sudoeste 0 -- -- 98
2020-03-29 06:00:00 7.1 10 Sudoeste 14 Oeste 0 -- -- 98
2020-03-29 05:00:00 7 10 Oeste 15 Sudoeste 0 -- -- 98
2020-03-29 03:00:00 7.5 8 Sudoeste 15 Oeste 0 -- -- 97
2020-03-29 01:00:00 7.4 9 Sudoeste 13 Sudoeste 0 -- -- 98
2020-03-29 00:00:00 7.3 6 Sudoeste 9 Sudoeste 0 -- -- 98
2020-03-28 23:00:00 7.4 5 Sudoeste 9 Sudoeste 0 -- -- 96
2020-03-28 22:00:00 8.4 4 Sudoeste 6 Sudoeste 0 -- -- 95
2020-03-28 21:00:00 9 0 Calma 3 Nordeste 0 -- -- 92
2020-03-28 20:00:00 11.6 4 Este 15 Nordeste 0 -- -- 87
2020-03-28 19:00:00 12.9 10 Este 18 Este 0 -- -- 84
2020-03-28 18:00:00 13.7 10 Este 18 Nordeste 0 -- -- 81
2020-03-28 17:00:00 14.1 12 Este 19 Este 0 -- -- 78
2020-03-28 16:00:00 14.4 11 Este 19 Nordeste 0 -- -- 74
2020-03-28 15:00:00 14.5 10 Este 17 Este 0 -- -- 75
2020-03-28 14:00:00 14.1 8 Nordeste 13 Este 0 -- -- 75
2020-03-28 13:00:00 13.5 6 Nordeste 13 Nordeste 0 -- -- 74
2020-03-28 12:00:00 13.2 7 Norte 12 Nordeste 0 -- -- 72
2020-03-28 11:00:00 12.7 6 Nordeste 9 Nordeste 0 -- -- 72
2020-03-28 10:00:00 11.7 5 Nordeste 12 Sudoeste 0 -- -- 74
2020-03-28 09:00:00 8.1 10 Sudoeste 17 Sudoeste 0 -- -- 89
2020-03-28 08:00:00 5.8 10 Sudoeste 17 Sudoeste 0 -- -- 94
2020-03-28 07:00:00 5.1 8 Sudoeste 15 Sudoeste 0 -- -- 95
2020-03-28 06:00:00 5 9 Sudoeste 16 Sudoeste 0 -- -- 93
2020-03-28 05:00:00 5.5 11 Sudoeste 15 Oeste 0 -- -- 93
2020-03-28 04:00:00 5.5 8 Sudoeste 13 Oeste 0 -- -- 93
2020-03-28 03:00:00 5.9 8 Oeste 13 Oeste 0 -- -- 92
2020-03-28 02:00:00 5.5 6 Sudoeste 10 Sudoeste 0 -- -- 90
2020-03-28 01:00:00 6.9 2 Oeste 22 Este 0 -- -- 82
2020-03-28 00:00:00 9.6 8 Este 23 Este 0 -- -- 77
2020-03-27 23:00:00 10.2 13 Este 27 Este 0 -- -- 77
2020-03-27 22:00:00 10.5 16 Este 28 Este 0 -- -- 76
2020-03-27 21:00:00 11 21 Este 42 Este 0 -- -- 75
2020-03-27 20:00:00 11.5 26 Este 44 Este 0 -- -- 73
2020-03-27 19:00:00 11.8 27 Este 42 Este 0 -- -- 75
2020-03-27 18:00:00 12.5 23 Este 44 Este 0 -- -- 70
2020-03-27 17:00:00 12.8 26 Este 42 Este 0 -- -- 68
2020-03-27 16:00:00 12.9 24 Este 39 Nordeste 0 -- -- 67
2020-03-27 15:00:00 12.8 24 Este 40 Este 0 -- -- 67
2020-03-27 14:00:00 13 22 Este 34 Este 0 -- -- 63
2020-03-27 13:00:00 12.7 19 Este 31 Nordeste 0 -- -- 63
2020-03-27 12:00:00 12.7 17 Este 29 Este 0 -- -- 61
2020-03-27 11:00:00 12.1 14 Este 23 Este 0 -- -- 62
2020-03-27 10:00:00 10.7 11 Este 20 Este 0 -- -- 63
2020-03-27 09:00:00 6.1 4 Sudoeste 11 Oeste 0 -- -- 91
2020-03-27 08:00:00 3.8 8 Sudoeste 12 Sudoeste 0 -- -- 91
2020-03-27 07:00:00 3.3 9 Sudoeste 12 Sudoeste 0 -- -- 90
2020-03-27 06:00:00 3.7 9 Sudoeste 14 Oeste 0 -- -- 89
2020-03-27 05:00:00 4.2 8 Sudoeste 13 Oeste 0 -- -- 88
2020-03-27 04:00:00 4.8 7 Sudoeste 12 Sudoeste 0 -- -- 87
2020-03-27 03:00:00 6 8 Sudoeste 10 Sudoeste 0 -- -- 83
2020-03-27 02:00:00 6.5 4 Oeste 6 Oeste 0 -- -- 82
2020-03-27 01:00:00 8 5 Sudoeste 22 Este 0 -- -- 75
2020-03-27 00:00:00 9.6 8 Este 22 Este 0 -- -- 64
2020-03-26 23:00:00 9.8 10 Este 21 Este 0 -- -- 60
2020-03-26 22:00:00 10.1 8 Nordeste 19 Nordeste 0 -- -- 60
2020-03-26 21:00:00 10.4 6 Este 20 Nordeste 0 -- -- 65
2020-03-26 20:00:00 10.8 8 Nordeste 27 Nordeste 0 -- -- 68
2020-03-26 19:00:00 11.6 4 Nordeste 11 Sudeste 0 -- -- 70
2020-03-26 18:00:00 12.5 3 Nordeste 13 Oeste 0 -- -- 67
2020-03-26 17:00:00 13 4 Norte 18 Nordeste 0 -- -- 64
2020-03-26 16:00:00 13 10 Nordeste 21 Nordeste 0 -- -- 64
2020-03-26 15:00:00 13.1 10 Norte 20 Norte 0 -- -- 62
2020-03-26 14:00:00 13.1 9 Norte 19 Norte 0 -- -- 60
2020-03-26 13:00:00 13.1 9 Nordeste 20 Nordeste 0 -- -- 64
2020-03-26 12:00:00 12.1 9 Nordeste 17 Norte 0 -- -- 66
2020-03-26 11:00:00 11.8 5 Oeste 16 Sudoeste 0 -- -- 67
2020-03-26 10:00:00 10.5 9 Sudoeste 15 Sudoeste 0 -- -- 77
2020-03-26 09:00:00 8.5 8 Sudoeste 16 Sudoeste 0 -- -- 87
2020-03-26 08:00:00 6.3 9 Oeste 15 Sudoeste 0 -- -- 95
2020-03-26 07:00:00 6.2 9 Oeste 15 Oeste 0 -- -- 95
2020-03-26 06:00:00 6.6 9 Oeste 14 Sudoeste 0 -- -- 95
2020-03-26 05:00:00 6.9 10 Oeste 14 Sudoeste 0 -- -- 96
2020-03-26 04:00:00 6.7 8 Oeste 15 Oeste 0 -- -- 97
2020-03-26 03:00:00 7.1 9 Oeste 14 Oeste 0 -- -- 98
2020-03-26 02:00:00 6.8 8 Oeste 11 Oeste 0 -- -- 98
2020-03-26 01:00:00 6.6 2 Oeste 5 Oeste 0 -- -- 96
2020-03-26 00:00:00 8.1 2 Sudoeste 10 Oeste 0 -- -- 97
2020-03-25 23:00:00 8.5 6 Sudoeste 10 Oeste 0 -- -- 96
2020-03-25 22:00:00 7.9 0 Calma 8 Oeste 0 -- -- 93
2020-03-25 21:00:00 9.2 3 Oeste 6 Norte 0 -- -- 89
2020-03-25 20:00:00 11.6 2 Norte 8 Nordeste 0 -- -- 84
2020-03-25 19:00:00 13 3 Norte 12 Este 0 -- -- 81
2020-03-25 18:00:00 13.4 5 Nordeste 14 Norte 0 -- -- 83
2020-03-25 17:00:00 14.4 5 Norte 9 Nordeste 0 -- -- 84
2020-03-25 16:00:00 14.7 4 Este 12 Nordeste 0 -- -- 81
2020-03-25 15:00:00 13.7 6 Norte 12 Norte 0 -- -- 87
2020-03-25 14:00:00 14.6 9 Nordeste 17 Nordeste 0 -- -- 88
2020-03-25 13:00:00 14 10 Nordeste 12 Norte 0 -- -- 90
2020-03-25 12:00:00 13.8 8 Nordeste 15 Nordeste 0 -- -- 89
2020-03-25 11:00:00 13.4 10 Nordeste 13 Norte 0 -- -- 93
2020-03-25 10:00:00 12.6 8 Norte 12 Nordeste 0 -- -- 97
2020-03-25 09:00:00 9.6 8 Sudoeste 13 Sudoeste 0 -- -- 100
2020-03-25 08:00:00 7.5 9 Sudoeste 13 Sudoeste 0 -- -- 100
2020-03-25 07:00:00 7 9 Sudoeste 13 Sudoeste 0 -- -- 100
2020-03-25 06:00:00 7.3 9 Sudoeste 14 Oeste 0 -- -- 99
2020-03-25 05:00:00 7.7 9 Sudoeste 14 Oeste 0 -- -- 99
2020-03-25 04:00:00 7.9 9 Sudoeste 15 Oeste 0 -- -- 99
2020-03-25 03:00:00 8.4 7 Sudoeste 11 Oeste 0 -- -- 98
2020-03-25 02:00:00 9.1 6 Oeste 15 Sudoeste 0 -- -- 97
2020-03-25 01:00:00 10.2 8 Oeste 22 Nordeste 0 -- -- 96
2020-03-25 00:00:00 12.2 13 Nordeste 21 Nordeste 0 -- -- 96
2020-03-24 23:00:00 12.4 10 Este 20 Nordeste 0 -- -- 96
2020-03-24 22:00:00 12.7 13 Nordeste 20 Nordeste 0 -- -- 95
2020-03-24 21:00:00 12.9 12 Este 19 Este 0 -- -- 96
2020-03-24 20:00:00 13.2 11 Este 22 Este 0 -- -- 95
2020-03-24 19:00:00 13.9 14 Este 25 Este 0 -- -- 91
2020-03-24 18:00:00 14.8 15 Este 29 Este 0 -- -- 87
2020-03-24 17:00:00 15.5 11 Nordeste 19 Este 0 -- -- 84
2020-03-24 16:00:00 15.4 10 Nordeste 22 Este 0 -- -- 82
2020-03-24 15:00:00 15.5 11 Nordeste 17 Nordeste 0 -- -- 78
2020-03-24 14:00:00 14.9 10 Nordeste 22 Este 0 -- -- 88
2020-03-24 13:00:00 14.8 12 Este 17 Este 0 -- -- 86
2020-03-24 12:00:00 14.3 9 Nordeste 12 Nordeste 0 -- -- 87
2020-03-24 11:00:00 14 8 Nordeste 13 Sur 0 -- -- 88
2020-03-24 10:00:00 13.6 5 Sudoeste 10 Oeste 0 -- -- 90
2020-03-24 09:00:00 12.3 6 Oeste 10 Oeste 0 -- -- 98
2020-03-24 08:00:00 10.8 5 Sudoeste 9 Sudoeste 0 -- -- 100
2020-03-24 07:00:00 10.7 3 Noroeste 8 Sudoeste 0 -- -- 99
2020-03-24 06:00:00 9.5 2 Oeste 4 Oeste 0 -- -- 98
2020-03-24 05:00:00 10.4 2 Nordeste 4 Nordeste 0 -- -- 97
2020-03-24 04:00:00 11.6 2 Noroeste 19 Este 0 -- -- 96
2020-03-24 03:00:00 12.7 12 Este 26 Este 0 -- -- 97
2020-03-24 02:00:00 12.6 15 Este 28 Este 0 -- -- 96
2020-03-24 01:00:00 12.5 19 Este 30 Este 0 -- -- 95
2020-03-24 00:00:00 12.6 20 Este 35 Este 0 -- -- 95
2020-03-23 23:00:00 12.6 18 Este 34 Este 0 -- -- 94
2020-03-23 22:00:00 12.6 15 Este 31 Nordeste 0 -- -- 93
2020-03-23 21:00:00 12.7 18 Este 30 Este 0 -- -- 92
2020-03-23 20:00:00 12.6 15 Este 27 Nordeste 0 -- -- 92
2020-03-23 19:00:00 12.5 14 Este 25 Este 0 -- -- 91
2020-03-23 18:00:00 12.7 15 Este 28 Este 0 -- -- 89
2020-03-23 17:00:00 12.8 16 Este 26 Este 0 -- -- 89
2020-03-23 16:00:00 13.3 16 Este 26 Este 0 -- -- 86
2020-03-23 15:00:00 13.6 16 Este 28 Este 0 -- -- 88
2020-03-23 14:00:00 14 15 Este 25 Este 0 -- -- 86
2020-03-23 13:00:00 13.8 13 Nordeste 17 Nordeste 0 -- -- 87
2020-03-23 12:00:00 13.7 10 Este 15 Este 0 -- -- 89
2020-03-23 11:00:00 12.6 6 Este 12 Este 0 -- -- 92
2020-03-23 10:00:00 12.2 3 Este 6 Este 0 -- -- 95
2020-03-23 09:00:00 11.8 4 Este 10 Este 0 -- -- 94
2020-03-23 08:00:00 12 3 Este 13 Nordeste 0 -- -- 92
2020-03-23 07:00:00 12 8 Este 14 Este 0 -- -- 91
2020-03-23 06:00:00 12.1 9 Este 17 Este 0 -- -- 91
2020-03-23 05:00:00 12.1 8 Este 17 Este 0 -- -- 92
2020-03-23 04:00:00 12.1 5 Este 12 Este 0 -- -- 94
2020-03-23 03:00:00 12.2 7 Este 12 Este 0 -- -- 93
2020-03-23 02:00:00 12.2 5 Nordeste 9 Nordeste 0 -- -- 93
2020-03-23 01:00:00 12.2 5 Este 11 Nordeste 0 -- -- 93
2020-03-23 00:00:00 12.3 4 Nordeste 11 Nordeste 0 -- -- 93
2020-03-22 23:00:00 12.3 8 Este 16 Este 0 -- -- 94
2020-03-22 22:00:00 12.4 6 Este 17 Nordeste 0 -- -- 94
2020-03-22 21:00:00 12.5 10 Este 19 Nordeste 0 -- -- 95
2020-03-22 20:00:00 12.7 5 Este 14 Este 0 -- -- 95
2020-03-22 19:00:00 12.9 7 Este 23 Norte 0 -- -- 94
2020-03-22 18:00:00 13.6 2 Norte 12 Nordeste 0 -- -- 90
2020-03-22 17:00:00 13.9 6 Norte 14 Norte 0 -- -- 88
2020-03-22 16:00:00 14.2 8 Norte 15 Norte 0 -- -- 86
2020-03-22 15:00:00 14.2 10 Norte 19 Norte 0 -- -- 87
2020-03-22 14:00:00 14.6 10 Norte 19 Norte 0 -- -- 83
2020-03-22 13:00:00 14.4 13 Norte 21 Norte 0 -- -- 86
2020-03-22 12:00:00 14.9 9 Norte 17 Norte 0 -- -- 82
2020-03-22 11:00:00 15.8 4 Oeste 14 Oeste 0 -- -- 76
2020-03-22 10:00:00 13.8 6 Sudoeste 12 Oeste 0 -- -- 86
2020-03-22 09:00:00 12.3 6 Oeste 13 Oeste 0 -- -- 92
2020-03-22 08:00:00 11.5 6 Oeste 12 Sudoeste 0 -- -- 94
2020-03-22 07:00:00 11.4 5 Sudoeste 8 Oeste 0 -- -- 94
2020-03-22 06:00:00 11.4 3 Sudoeste 8 Sudoeste 0 -- -- 94
2020-03-22 05:00:00 11.3 4 Oeste 7 Sudoeste 0 -- -- 95
2020-03-22 04:00:00 11.4 4 Sudoeste 8 Sudoeste 0 -- -- 96
2020-03-22 03:00:00 11.3 4 Sudoeste 5 Sudoeste 0 -- -- 96
2020-03-22 02:00:00 11.3 2 Oeste 6 Oeste 0 -- -- 97
2020-03-22 01:00:00 11.2 4 Oeste 7 Oeste 0 -- -- 98
2020-03-22 00:00:00 11.2 3 Oeste 8 Oeste 0 -- -- 98
2020-03-21 23:00:00 10.6 4 Oeste 6 Oeste 0 -- -- 99
2020-03-21 22:00:00 10.7 0 Calma 4 Sudoeste 0 -- -- 98
2020-03-21 21:00:00 11 0 Calma 4 Noroeste 0 -- -- 97
2020-03-21 20:00:00 11.2 2 Noroeste 10 Oeste 0 -- -- 97
2020-03-21 19:00:00 11.3 4 Oeste 6 Sudoeste 0 -- -- 98
2020-03-21 18:00:00 11.4 0 Calma 6 Este 0 -- -- 99
2020-03-21 17:00:00 11.3 3 Este 8 Este 0 -- -- 99
2020-03-21 16:00:00 11.2 5 Nordeste 8 Nordeste 0 -- -- 99
2020-03-21 15:00:00 11.3 3 Norte 9 Norte 0 -- -- 100
2020-03-21 14:00:00 11.2 6 Norte 12 Nordeste 0 -- -- 100
2020-03-21 13:00:00 11.7 5 Nordeste 10 Nordeste 0 -- -- 100
2020-03-21 12:00:00 11 5 Nordeste 9 Este 0 -- -- 100
2020-03-21 11:00:00 10.5 4 Nordeste 8 Nordeste 0 -- -- 100
2020-03-21 10:00:00 10.1 2 Este 6 Sudoeste 0 -- -- 100
2020-03-21 09:00:00 9.8 3 Oeste 6 Sudoeste 0 -- -- 100
2020-03-21 08:00:00 9.3 0 Calma 4 Oeste 0 -- -- 100
2020-03-21 07:00:00 9.2 2 Oeste 7 Sudoeste 0 -- -- 100
2020-03-21 06:00:00 9.4 0 Calma 9 Sudoeste 0 -- -- 100
2020-03-21 05:00:00 9.6 5 Sudoeste 8 Oeste 0 -- -- 100
2020-03-21 04:00:00 10.1 5 Oeste 9 Sudoeste 0 -- -- 100
2020-03-21 03:00:00 10.2 3 Sudoeste 7 Sudoeste 0 -- -- 100
2020-03-21 02:00:00 10.2 3 Sudoeste 10 Sudoeste 0 -- -- 100
2020-03-21 01:00:00 10.2 3 Oeste 8 Sudoeste 0 -- -- 100
2020-03-21 00:00:00 10.4 0 Calma 7 Sudoeste 0 -- -- 100
2020-03-20 23:00:00 10.9 3 Sudoeste 6 Sudoeste 0 -- -- 100
2020-03-20 22:00:00 11 0 Calma 4 Este 0 -- -- 99
2020-03-20 21:00:00 11 3 Este 8 Este 0 -- -- 99
2020-03-20 20:00:00 11.1 6 Nordeste 11 Nordeste 0 -- -- 98
2020-03-20 19:00:00 11.5 6 Nordeste 11 Este 0 -- -- 97
2020-03-20 18:00:00 11.9 6 Nordeste 12 Nordeste 0 -- -- 96
2020-03-20 17:00:00 12.4 6 Nordeste 10 Este 0 -- -- 96
2020-03-20 16:00:00 12.2 6 Nordeste 11 Nordeste 0 -- -- 95
2020-03-20 15:00:00 12.3 5 Nordeste 10 Este 0 -- -- 95
2020-03-20 14:00:00 12.1 8 Este 13 Nordeste 0 -- -- 95
2020-03-20 13:00:00 12 4 Nordeste 9 Este 0 -- -- 98
2020-03-20 12:00:00 11.4 4 Norte 8 Este 0 -- -- 99
2020-03-20 11:00:00 11.1 3 Norte 8 Norte 0 -- -- 100
2020-03-20 10:00:00 10.9 3 Noroeste 8 Nordeste 0 -- -- 100
2020-03-20 09:00:00 10.7 0 Calma 6 Sudoeste 0 -- -- 100
2020-03-20 08:00:00 10.6 2 Este 4 Este 0 -- -- 100
2020-03-20 07:00:00 10.6 0 Calma 5 Oeste 0 -- -- 100
2020-03-20 06:00:00 10.6 3 Noroeste 6 Noroeste 0 -- -- 100
2020-03-20 05:00:00 10.8 3 Noroeste 6 Oeste 0 -- -- 100
2020-03-20 04:00:00 10.8 0 Calma 4 Sudoeste 0 -- -- 100
2020-03-20 03:00:00 10.9 2 Sudoeste 5 Oeste 0 -- -- 100
2020-03-20 02:00:00 10.9 0 Calma 6 Oeste 0 -- -- 100
2020-03-20 01:00:00 10.9 5 Oeste 8 Oeste 0 -- -- 100
2020-03-20 00:00:00 11 0 Calma 5 Sudoeste 0 -- -- 100
2020-03-19 23:00:00 11 2 Sudoeste 4 Sudoeste 0 -- -- 100
2020-03-19 22:00:00 11 0 Calma 5 Nordeste 0 -- -- 99
2020-03-19 21:00:00 11.1 2 Sudeste 8 Este 0 -- -- 99
2020-03-19 20:00:00 11.3 4 Este 8 Este 0 -- -- 99
2020-03-19 19:00:00 11.5 3 Este 7 Sudeste 0 -- -- 98
2020-03-19 18:00:00 11.5 2 Nordeste 6 Nordeste 0 -- -- 98
2020-03-19 17:00:00 11.6 5 Este 10 Este 0 -- -- 97
2020-03-19 16:00:00 11.8 7 Nordeste 12 Nordeste 0 -- -- 97
2020-03-19 15:00:00 11.9 6 Este 9 Nordeste 0 -- -- 98
2020-03-19 14:00:00 11.6 5 Nordeste 11 Este 0 -- -- 99
2020-03-19 13:00:00 11.6 5 Este 10 Este 0 -- -- 99
2020-03-19 12:00:00 11.4 2 Nordeste 5 Nordeste 0 -- -- 100
2020-03-19 11:00:00 11 0 Calma 8 Sudoeste 0 -- -- 100
2020-03-19 10:00:00 10.4 4 Sudoeste 6 Sudoeste 0 -- -- 100
2020-03-19 09:00:00 10.3 4 Sur 8 Sudoeste 0 -- -- 100
2020-03-19 08:00:00 10.2 5 Sudoeste 7 Sudoeste 0 -- -- 100
2020-03-19 07:00:00 10.5 2 Sur 4 Sudoeste 0 -- -- 100
2020-03-19 06:00:00 10.6 3 Sudoeste 5 Oeste 0 -- -- 99
2020-03-19 05:00:00 10.5 3 Sudoeste 7 Oeste 0 -- -- 99
2020-03-19 04:00:00 10.5 4 Noroeste 9 Oeste 0 -- -- 99
2020-03-19 03:00:00 10.7 3 Oeste 6 Oeste 0 -- -- 99
2020-03-19 02:00:00 10.9 4 Sudoeste 7 Sudoeste 0 -- -- 98
2020-03-19 01:00:00 11 4 Sudoeste 8 Sudoeste 0 -- -- 98
2020-03-19 00:00:00 11.1 0 Calma 6 Sudoeste 0 -- -- 97
2020-03-18 23:00:00 11.3 2 Sur 5 Nordeste 0 -- -- 97
2020-03-18 22:00:00 11.3 2 Noroeste 6 Nordeste 0 -- -- 97
2020-03-18 21:00:00 11.5 3 Este 9 Este 0 -- -- 96
2020-03-18 20:00:00 11.7 0 Calma 6 Norte 0 -- -- 95
2020-03-18 19:00:00 12.1 2 Nordeste 6 Nordeste 0 -- -- 94
2020-03-18 18:00:00 12.4 4 Nordeste 8 Nordeste 0 -- -- 94
2020-03-18 17:00:00 12.7 6 Nordeste 9 Norte 0 -- -- 92
2020-03-18 16:00:00 13.2 5 Norte 10 Norte 0 -- -- 90
2020-03-18 15:00:00 13.5 7 Norte 11 Nordeste 0 -- -- 89
2020-03-18 14:00:00 13.8 8 Nordeste 13 Norte 0 -- -- 88
2020-03-18 13:00:00 13.5 8 Norte 12 Nordeste 0 -- -- 88
2020-03-18 12:00:00 13.2 8 Nordeste 10 Norte 0 -- -- 89
2020-03-18 11:00:00 12.7 4 Nordeste 8 Oeste 0 -- -- 91
2020-03-18 10:00:00 11.8 6 Oeste 11 Sudoeste 0 -- -- 94
2020-03-18 09:00:00 11.1 9 Oeste 13 Sudoeste 0 -- -- 94
2020-03-18 08:00:00 10.9 7 Oeste 12 Oeste 0 -- -- 94
2020-03-18 07:00:00 10.9 7 Oeste 11 Oeste 0 -- -- 94
2020-03-18 06:00:00 11 6 Oeste 9 Oeste 0 -- -- 94
2020-03-18 05:00:00 10.9 5 Oeste 9 Oeste 0 -- -- 96
2020-03-18 04:00:00 11 7 Oeste 10 Oeste 0 -- -- 96
2020-03-18 03:00:00 10.5 4 Oeste 8 Oeste 0 -- -- 97
2020-03-18 02:00:00 10.5 4 Oeste 8 Sudoeste 0 -- -- 96
2020-03-18 01:00:00 11.6 3 Oeste 6 Este 0 -- -- 96
2020-03-18 00:00:00 11.8 3 Este 13 Nordeste 0 -- -- 96
2020-03-17 23:00:00 12 10 Este 18 Este 0 -- -- 96
2020-03-17 22:00:00 12 10 Este 19 Este 0 -- -- 94
2020-03-17 21:00:00 12.1 12 Este 22 Este 0 -- -- 92
2020-03-17 20:00:00 12.2 13 Este 23 Este 0 -- -- 91
2020-03-17 19:00:00 12.2 15 Este 26 Este 0 -- -- 90
2020-03-17 18:00:00 12.2 14 Este 25 Este 0 -- -- 90
2020-03-17 17:00:00 12.4 15 Este 26 Nordeste 0 -- -- 90
2020-03-17 16:00:00 12.4 15 Este 26 Este 0 -- -- 90
2020-03-17 15:00:00 12.4 14 Este 25 Este 0 -- -- 89
2020-03-17 14:00:00 12.4 12 Nordeste 18 Nordeste 0 -- -- 89
2020-03-17 13:00:00 12.1 9 Nordeste 14 Nordeste 0 -- -- 89
2020-03-17 12:00:00 11.6 6 Nordeste 14 Nordeste 0 -- -- 89
2020-03-17 11:00:00 11.7 8 Nordeste 14 Este 0 -- -- 85
2020-03-17 10:00:00 10.9 2 Sur 7 Sudoeste 0 -- -- 91
2020-03-17 09:00:00 9.5 4 Sudoeste 7 Sudoeste 0 -- -- 94
2020-03-17 08:00:00 8.9 0 Calma 8 Sudoeste 0 -- -- 93
2020-03-17 07:00:00 8.8 6 Sudoeste 10 Sudoeste 0 -- -- 92
2020-03-17 06:00:00 8.6 6 Sudoeste 8 Sudoeste 0 -- -- 92
2020-03-17 05:00:00 8.8 6 Sudoeste 10 Sudoeste 0 -- -- 90
2020-03-17 04:00:00 8.8 5 Sudoeste 8 Sudoeste 0 -- -- 90
2020-03-17 03:00:00 9.4 2 Oeste 15 Este 0 -- -- 86
2020-03-17 02:00:00 11 8 Este 18 Este 0 -- -- 77
2020-03-17 01:00:00 10.9 8 Este 20 Este 0 -- -- 74
2020-03-17 00:00:00 10.9 6 Este 23 Nordeste 0 -- -- 74
2020-03-16 23:00:00 10.9 9 Norte 24 Nordeste 0 -- -- 74
2020-03-16 22:00:00 10.6 5 Nordeste 18 Nordeste 0 -- -- 77
2020-03-16 21:00:00 11 8 Nordeste 18 Nordeste 0 -- -- 72
2020-03-16 20:00:00 11 9 Nordeste 24 Nordeste 0 -- -- 73
2020-03-16 19:00:00 11 8 Nordeste 28 Norte 0 -- -- 74
2020-03-16 18:00:00 11.3 14 Nordeste 29 Nordeste 0 -- -- 73
2020-03-16 17:00:00 11.8 12 Nordeste 28 Nordeste 0 -- -- 73
2020-03-16 16:00:00 12.2 12 Nordeste 23 Norte 0 -- -- 67
2020-03-16 15:00:00 12.7 13 Nordeste 24 Nordeste 0 -- -- 69
2020-03-16 14:00:00 11.9 10 Nordeste 26 Nordeste 0 -- -- 72
2020-03-16 13:00:00 12 10 Nordeste 25 Nordeste 0 -- -- 73
2020-03-16 12:00:00 10.9 8 Este 30 Norte 0.2 -- -- 80
2020-03-16 11:00:00 9.1 6 Sudoeste 16 Nordeste 0.2 -- -- 91
2020-03-16 10:00:00 7.8 12 Oeste 20 Oeste 0 -- -- 93
2020-03-16 09:00:00 7.3 12 Oeste 20 Oeste 0 -- -- 94
2020-03-16 08:00:00 6.3 12 Oeste 23 Sudoeste 2.2 -- -- 95
2020-03-16 07:00:00 6.1 10 Oeste 20 Oeste 0 -- -- 94
2020-03-16 06:00:00 5.9 11 Oeste 20 Oeste 2.4 -- -- 94
2020-03-16 05:00:00 5.8 13 Oeste 19 Oeste 0 -- -- 95
2020-03-16 04:00:00 5.8 8 Oeste 16 Oeste 1.2 -- -- 94
2020-03-16 03:00:00 5.8 11 Oeste 19 Oeste 0 -- -- 94
2020-03-16 02:00:00 5.7 11 Oeste 20 Oeste 0.8 -- -- 95
2020-03-16 01:00:00 5.6 12 Oeste 22 Sudoeste 0.4 -- -- 94
2020-03-16 00:00:00 5.5 11 Oeste 20 Oeste 0.4 -- -- 94
2020-03-15 23:00:00 5.7 10 Oeste 28 Sudoeste 1 -- -- 93
2020-03-15 22:00:00 6 13 Sudoeste 22 Sudoeste 0.6 -- -- 92
2020-03-15 21:00:00 6.6 10 Oeste 20 Sudoeste 0.4 -- -- 94
2020-03-15 20:00:00 6.9 10 Sudoeste 30 Sudoeste 0.4 -- -- 94
2020-03-15 19:00:00 7.7 14 Oeste 24 Oeste 1.8 -- -- 94
2020-03-15 18:00:00 8.3 8 Sudoeste 17 Sudoeste 1.2 -- -- 94
2020-03-15 17:00:00 8.8 8 Sudoeste 25 Sudoeste 0.8 -- -- 93
2020-03-15 16:00:00 10.1 10 Sudoeste 25 Oeste 0 -- -- 89
2020-03-15 15:00:00 12.8 10 Sudoeste 25 Sudoeste 0 -- -- 83
2020-03-15 14:00:00 14.8 9 Nordeste 18 Este 0 -- -- 78
2020-03-15 13:00:00 15.9 4 Sudoeste 16 Sur 0 -- -- 67
2020-03-15 12:00:00 14.3 4 Sudoeste 15 Sudoeste 0 -- -- 75
2020-03-15 11:00:00 12.6 5 Oeste 14 Sudoeste 0 -- -- 82
2020-03-15 10:00:00 12.3 6 Oeste 17 Sudoeste 0 -- -- 86
2020-03-15 09:00:00 10.4 9 Oeste 22 Sudoeste 0 -- -- 92
2020-03-15 08:00:00 9.1 12 Oeste 21 Oeste 0 -- -- 98
2020-03-15 07:00:00 7.4 9 Oeste 15 Oeste 0 -- -- 99
2020-03-15 06:00:00 5.2 6 Sudoeste 12 Oeste 0 -- -- 99
2020-03-15 05:00:00 5.7 9 Sudoeste 13 Sudoeste 0 -- -- 99
2020-03-15 04:00:00 6.7 9 Oeste 12 Sudoeste 0 -- -- 98
2020-03-15 03:00:00 6.5 8 Sudoeste 10 Sudoeste 0 -- -- 98
2020-03-15 02:00:00 7 4 Oeste 14 Oeste 0 -- -- 97
2020-03-15 01:00:00 7.5 9 Sudoeste 16 Oeste 0 -- -- 97
2020-03-15 00:00:00 7.6 11 Sudoeste 16 Sudoeste 0 -- -- 96
2020-03-14 23:00:00 7.7 10 Sudoeste 14 Sudoeste 0 -- -- 94
2020-03-14 22:00:00 8.1 4 Oeste 15 Este 0 -- -- 92
2020-03-14 21:00:00 10.7 9 Este 20 Este 0 -- -- 89
2020-03-14 20:00:00 11.2 11 Este 20 Este 0 -- -- 86
2020-03-14 19:00:00 12 12 Este 19 Este 0 -- -- 80
2020-03-14 18:00:00 13.2 10 Este 17 Este 0 -- -- 74
2020-03-14 17:00:00 13.6 11 Este 19 Nordeste 0 -- -- 70
2020-03-14 16:00:00 13.8 12 Este 19 Este 0 -- -- 71
2020-03-14 15:00:00 14.3 10 Este 14 Nordeste 0 -- -- 69
2020-03-14 14:00:00 14 9 Nordeste 14 Nordeste 0 -- -- 71
2020-03-14 13:00:00 13.6 7 Nordeste 12 Nordeste 0 -- -- 75
2020-03-14 12:00:00 13.5 9 Norte 12 Nordeste 0 -- -- 75
2020-03-14 11:00:00 14.2 4 Sur 12 Sudoeste 0 -- -- 68
2020-03-14 10:00:00 11.9 8 Oeste 12 Oeste 0 -- -- 79
2020-03-14 09:00:00 9.3 6 Sudoeste 13 Oeste 0 -- -- 91
2020-03-14 08:00:00 8.1 9 Oeste 15 Oeste 0 -- -- 94
2020-03-14 07:00:00 7.9 7 Sudoeste 12 Oeste 0 -- -- 95
2020-03-14 06:00:00 8.3 8 Sudoeste 11 Sudoeste 0 -- -- 96
2020-03-14 05:00:00 8.1 8 Oeste 10 Sudoeste 0 -- -- 95
2020-03-14 04:00:00 8.9 6 Oeste 9 Oeste 0 -- -- 94
2020-03-14 03:00:00 9.4 6 Oeste 13 Sudoeste 0 -- -- 93
2020-03-14 02:00:00 9.3 4 Oeste 8 Oeste 0 -- -- 94
2020-03-14 01:00:00 9.2 3 Oeste 6 Sudoeste 0 -- -- 93
2020-03-14 00:00:00 10.1 5 Sudoeste 9 Sudoeste 0 -- -- 91
2020-03-13 23:00:00 10.3 6 Oeste 12 Oeste 0 -- -- 89
2020-03-13 22:00:00 9.8 6 Sudoeste 11 Sudoeste 0 -- -- 91
2020-03-13 21:00:00 10.3 5 Este 9 Nordeste 0 -- -- 88
2020-03-13 20:00:00 11.2 6 Este 22 Este 0 -- -- 84
2020-03-13 19:00:00 11.6 15 Este 24 Este 0 -- -- 82
2020-03-13 18:00:00 12 14 Este 24 Este 0 -- -- 79
2020-03-13 17:00:00 12.2 14 Este 23 Este 0 -- -- 78
2020-03-13 16:00:00 12.3 15 Este 26 Este 0 -- -- 77
2020-03-13 15:00:00 12.5 14 Este 25 Este 0 -- -- 77
2020-03-13 14:00:00 12.4 15 Este 31 Este 0 -- -- 79
2020-03-13 13:00:00 12.4 16 Este 31 Este 0 -- -- 80
2020-03-13 12:00:00 12.4 15 Este 26 Este 0 -- -- 84
2020-03-13 11:00:00 11.8 14 Este 25 Este 0 -- -- 89
2020-03-13 10:00:00 11.3 12 Este 21 Este 0 -- -- 94
2020-03-13 09:00:00 10.2 11 Este 21 Este 0 -- -- 97
2020-03-13 08:00:00 9.6 6 Este 12 Este 0 -- -- 99
2020-03-13 07:00:00 9.4 5 Este 20 Este 0 -- -- 99
2020-03-13 06:00:00 9.6 12 Este 22 Este 0.4 -- -- 100
2020-03-13 05:00:00 9.4 8 Nordeste 19 Nordeste 1 -- -- 99
2020-03-13 04:00:00 9.6 9 Este 18 Este 0 -- -- 99
2020-03-13 03:00:00 9.5 6 Este 15 Nordeste 0 -- -- 100
2020-03-13 02:00:00 9.6 6 Este 15 Nordeste 0.6 -- -- 100
2020-03-13 01:00:00 9.6 8 Este 16 Nordeste 0.8 -- -- 100
2020-03-13 00:00:00 9.7 7 Este 13 Este 0.6 -- -- 99
2020-03-12 23:00:00 9.8 4 Nordeste 18 Este 1.8 -- -- 99
2020-03-12 22:00:00 10.4 7 Este 16 Este 0.4 -- -- 98
2020-03-12 21:00:00 10.3 6 Nordeste 31 Nordeste 0.6 -- -- 99
2020-03-12 20:00:00 10.6 10 Nordeste 22 Nordeste 1.6 -- -- 98
2020-03-12 19:00:00 10.9 5 Nordeste 20 Norte 2.2 -- -- 97
2020-03-12 18:00:00 11.2 3 Sudoeste 8 Sur 0.4 -- -- 96
2020-03-12 17:00:00 11.7 6 Sudoeste 12 Sudoeste 0.6 -- -- 94
2020-03-12 16:00:00 12.9 7 Sudoeste 16 Sudoeste 0 -- -- 88
2020-03-12 15:00:00 13.5 3 Noroeste 9 Norte 0 -- -- 91
2020-03-12 14:00:00 13.5 6 Sudoeste 13 Sudoeste 0 -- -- 95
2020-03-12 13:00:00 12.6 0 Calma 10 Norte 0.2 -- -- 98
2020-03-12 12:00:00 12.4 4 Norte 12 Norte 1 -- -- 97
2020-03-12 11:00:00 12.9 5 Oeste 10 Oeste 0 -- -- 96
2020-03-12 10:00:00 12.7 4 Sudoeste 9 Oeste 0 -- -- 95
2020-03-12 09:00:00 12.9 4 Oeste 10 Oeste 0 -- -- 93
2020-03-12 08:00:00 12.5 6 Oeste 11 Oeste 0 -- -- 95
2020-03-12 07:00:00 12.5 4 Oeste 7 Oeste 0 -- -- 96
2020-03-12 06:00:00 12.4 4 Sudoeste 6 Norte 0 -- -- 95
2020-03-12 05:00:00 12.7 0 Calma 9 Oeste 0 -- -- 95
2020-03-12 04:00:00 12.8 6 Oeste 9 Oeste 0 -- -- 95
2020-03-12 03:00:00 12.3 0 Calma 7 Oeste 0 -- -- 97
2020-03-12 02:00:00 12.5 5 Sudoeste 10 Sudoeste 0 -- -- 96
2020-03-12 01:00:00 12.2 3 Sudoeste 6 Oeste 0 -- -- 98
2020-03-12 00:00:00 12.3 3 Sudoeste 4 Sudoeste 0 -- -- 98
2020-03-11 23:00:00 12.2 3 Oeste 5 Sudoeste 0 -- -- 98
2020-03-11 22:00:00 11.4 2 Sudoeste 5 Oeste 0 -- -- 97
2020-03-11 21:00:00 12.6 0 Calma 7 Noroeste 0 -- -- 96
2020-03-11 20:00:00 12.8 6 Noroeste 14 Noroeste 0 -- -- 95
2020-03-11 19:00:00 13.6 5 Noroeste 9 Noroeste 0 -- -- 89
2020-03-11 18:00:00 14.4 4 Norte 9 Norte 0 -- -- 88
2020-03-11 17:00:00 14.9 6 Norte 13 Norte 0 -- -- 86
2020-03-11 16:00:00 15.4 8 Nordeste 14 Este 0 -- -- 83
2020-03-11 15:00:00 14.8 8 Nordeste 12 Nordeste 0 -- -- 85
2020-03-11 14:00:00 14.6 8 Nordeste 14 Nordeste 0 -- -- 89
2020-03-11 13:00:00 14.2 9 Nordeste 12 Norte 0 -- -- 89
2020-03-11 12:00:00 15 5 Este 9 Este 0 -- -- 83
2020-03-11 11:00:00 14.2 4 Nordeste 7 Nordeste 0 -- -- 86
2020-03-11 10:00:00 12.6 3 Este 8 Sudoeste 0 -- -- 97
2020-03-11 09:00:00 9.6 4 Sudoeste 10 Sudoeste 0 -- -- 99
2020-03-11 08:00:00 7.7 6 Oeste 10 Sudoeste 0 -- -- 99
2020-03-11 07:00:00 7.6 6 Sudoeste 9 Sudoeste 0 -- -- 97
2020-03-11 06:00:00 8.5 3 Sudoeste 12 Oeste 0 -- -- 94
2020-03-11 05:00:00 8.5 3 Sudoeste 16 Oeste 0 -- -- 92
2020-03-11 04:00:00 9.5 10 Sudoeste 16 Oeste 0 -- -- 92
2020-03-11 03:00:00 9.8 9 Sudoeste 15 Oeste 0 -- -- 91
2020-03-11 02:00:00 9.9 9 Oeste 15 Sudoeste 0 -- -- 92
2020-03-11 01:00:00 9.7 9 Sudoeste 14 Sudoeste 0 -- -- 92
2020-03-11 00:00:00 9.3 8 Sudoeste 9 Sudoeste 0 -- -- 92
2020-03-10 23:00:00 10.9 6 Sudoeste 12 Sudoeste 0 -- -- 90
2020-03-10 22:00:00 10.5 9 Sudoeste 14 Sudoeste 0 -- -- 92
2020-03-10 21:00:00 10.6 6 Oeste 11 Sudoeste 0 -- -- 93
2020-03-10 20:00:00 10.5 4 Sudoeste 6 Oeste 0 -- -- 91
2020-03-10 19:00:00 12.9 2 Norte 14 Este 0 -- -- 87
2020-03-10 18:00:00 13.9 11 Este 19 Nordeste 0 -- -- 83
2020-03-10 17:00:00 14.5 10 Este 17 Este 0 -- -- 79
2020-03-10 16:00:00 14.7 10 Este 15 Este 0 -- -- 76
2020-03-10 15:00:00 14.6 9 Nordeste 14 Este 0 -- -- 76
2020-03-10 14:00:00 14.4 7 Nordeste 12 Nordeste 0 -- -- 80
2020-03-10 13:00:00 13.9 5 Nordeste 9 Nordeste 0 -- -- 78
2020-03-10 12:00:00 13 6 Nordeste 10 Nordeste 0 -- -- 88
2020-03-10 11:00:00 12.4 2 Sur 6 Sudoeste 0 -- -- 94
2020-03-10 10:00:00 10.4 4 Oeste 12 Sudoeste 0 -- -- 99
2020-03-10 09:00:00 8.2 9 Sudoeste 12 Oeste 0 -- -- 99
2020-03-10 08:00:00 6.7 7 Sudoeste 10 Sudoeste 0 -- -- 97
2020-03-10 07:00:00 7.4 8 Oeste 13 Sudoeste 0 -- -- 96
2020-03-10 06:00:00 7.9 8 Oeste 14 Oeste 0 -- -- 95
2020-03-10 05:00:00 7.8 9 Sudoeste 13 Oeste 0 -- -- 94
2020-03-10 04:00:00 8 9 Sudoeste 14 Oeste 0 -- -- 94
2020-03-10 03:00:00 8.1 9 Oeste 13 Sudoeste 0 -- -- 94
2020-03-10 02:00:00 7.8 10 Sudoeste 13 Sudoeste 0 -- -- 94
2020-03-10 01:00:00 8.2 8 Sudoeste 11 Oeste 0 -- -- 92
2020-03-10 00:00:00 9 6 Sudoeste 12 Oeste 0 -- -- 89